Time;durP1;ratioP1;P1;durP2;ratioP2;P2;SDS_P1;SDS_P2;PMS_P1;PMS_P2;Temp;Humidity;BMP_temperature;BMP_pressure;BME280_temperature;BME280_humidity;BME280_pressure;Samples;Min_cycle;Max_cycle;Signal;HPM_P1;HPM_P2
2021/09/18 00:00:53;;;;;;;;;;;10.60;99.90;;;;;;5094762;28;19923;-72
2021/09/18 00:03:20;;;;;;;;;;;10.60;99.90;;;;;;5095007;28;19924;-72
2021/09/18 00:05:52;;;;;;;;;;;10.70;99.90;;;;;;5094077;28;19924;-72
2021/09/18 00:08:18;;;;;;;;;;;10.70;99.90;;;;;;5078039;28;20015;-72
2021/09/18 00:10:50;;;;;;;;;;;10.70;99.90;;;;;;5095823;28;19927;-72
2021/09/18 00:13:17;;;;;;;;;;;10.60;99.90;;;;;;5094654;28;20439;-72
2021/09/18 00:15:51;;;;;;;;;;;10.60;99.90;;;;;;5078059;28;20378;-72
2021/09/18 00:18:26;;;;;;;;;;;10.60;99.90;;;;;;5079032;28;19949;-72
2021/09/18 00:20:58;;;;;;;;;;;10.50;99.90;;;;;;5095459;28;20563;-71
2021/09/18 00:23:25;;;;;;;;;;;10.50;99.90;;;;;;5077534;28;19931;-72
2021/09/18 00:25:57;;;;;;;;;;;10.50;99.90;;;;;;5094730;28;20282;-71
2021/09/18 00:28:28;;;;;;;;;;;10.50;99.90;;;;;;5094992;28;19930;-72
2021/09/18 00:31:00;;;;;;;;;;;10.50;99.90;;;;;;5094211;28;19971;-73
2021/09/18 00:33:27;;;;;;;;;;;10.50;99.90;;;;;;5094611;28;19959;-72
2021/09/18 00:35:58;;;;;;;;;;;10.40;99.90;;;;;;5092979;28;20022;-71
2021/09/18 00:38:30;;;;;;;;;;;10.30;99.90;;;;;;5112128;28;19930;-72
2021/09/18 00:41:06;;;;;;;;;;;10.30;99.90;;;;;;5093740;28;20015;-72
2021/09/18 00:43:34;;;;;;;;;;;10.20;99.90;;;;;;5093957;28;20657;-72
2021/09/18 00:46:07;;;;;;;;;;;10.20;99.90;;;;;;5111938;28;20019;-72
2021/09/18 00:48:38;;;;;;;;;;;10.20;99.90;;;;;;5095191;28;19924;-72
2021/09/18 00:51:10;;;;;;;;;;;10.10;99.90;;;;;;5094590;28;19924;-71
2021/09/18 00:53:37;;;;;;;;;;;10.00;99.90;;;;;;5077127;28;20357;-71
2021/09/18 00:56:05;;;;;;;;;;;9.90;99.90;;;;;;5093644;28;20021;-73
2021/09/18 00:58:36;;;;;;;;;;;9.90;99.90;;;;;;5095134;28;19924;-72
2021/09/18 01:01:03;;;;;;;;;;;9.80;99.90;;;;;;5111678;28;20015;-72
2021/09/18 01:03:31;;;;;;;;;;;9.80;99.90;;;;;;5076291;28;20673;-73
2021/09/18 01:05:58;;;;;;;;;;;9.90;99.90;;;;;;5111197;28;20345;-72
2021/09/18 01:08:26;;;;;;;;;;;9.90;99.90;;;;;;5076539;28;19928;-72
2021/09/18 01:10:53;;;;;;;;;;;10.00;99.90;;;;;;5093185;28;19927;-72
2021/09/18 01:13:25;;;;;;;;;;;10.00;99.90;;;;;;5093842;28;19935;-72
2021/09/18 01:15:52;;;;;;;;;;;10.10;99.90;;;;;;5092950;28;19923;-73
2021/09/18 01:18:19;;;;;;;;;;;10.10;99.90;;;;;;5093425;28;19927;-72
2021/09/18 01:20:50;;;;;;;;;;;10.10;99.90;;;;;;5111361;28;20336;-72
2021/09/18 01:23:22;;;;;;;;;;;10.10;99.90;;;;;;5093088;28;20023;-72
2021/09/18 01:25:49;;;;;;;;;;;10.00;99.90;;;;;;5092521;28;19985;-73
2021/09/18 01:28:16;;;;;;;;;;;10.00;99.90;;;;;;5093622;28;19967;-72
2021/09/18 01:30:44;;;;;;;;;;;10.00;99.90;;;;;;5077156;28;19931;-72
2021/09/18 01:33:12;;;;;;;;;;;10.00;99.90;;;;;;5076767;28;19923;-72
2021/09/18 01:35:43;;;;;;;;;;;9.90;99.90;;;;;;5076778;28;19955;-72
2021/09/18 01:38:10;;;;;;;;;;;9.90;99.90;;;;;;5093329;28;19978;-72
2021/09/18 01:40:41;;;;;;;;;;;9.90;99.90;;;;;;5092964;28;19924;-72
2021/09/18 01:43:09;;;;;;;;;;;9.90;99.90;;;;;;5111059;28;19924;-73
2021/09/18 01:45:36;;;;;;;;;;;9.90;99.90;;;;;;5092589;28;19928;-72
2021/09/18 01:48:12;;;;;;;;;;;9.90;99.90;;;;;;5093914;28;19924;-71
2021/09/18 01:50:47;;;;;;;;;;;9.90;99.90;;;;;;5069129;28;19924;-72
2021/09/18 01:53:21;;;;;;;;;;;9.90;99.90;;;;;;5097093;28;19923;-72
2021/09/18 01:55:48;;;;;;;;;;;9.90;99.90;;;;;;5079891;28;19928;-72
2021/09/18 01:58:19;;;;;;;;;;;9.80;99.90;;;;;;5097178;28;20385;-72
2021/09/18 02:00:48;;;;;;;;;;;9.80;99.90;;;;;;5097484;28;19924;-72
2021/09/18 02:03:20;;;;;;;;;;;9.70;99.90;;;;;;5098240;28;19927;-72
2021/09/18 02:05:47;;;;;;;;;;;9.70;99.90;;;;;;5096752;28;19978;-72
2021/09/18 02:08:20;;;;;;;;;;;9.70;99.90;;;;;;5115254;28;19923;-72
2021/09/18 02:10:53;;;;;;;;;;;9.70;99.90;;;;;;5098032;28;20333;-72
2021/09/18 02:13:25;;;;;;;;;;;9.70;99.90;;;;;;5096857;28;19982;-72
2021/09/18 02:15:56;;;;;;;;;;;9.70;99.90;;;;;;5096490;28;20525;-72
2021/09/18 02:18:23;;;;;;;;;;;9.70;99.90;;;;;;5096858;28;19992;-72
2021/09/18 02:20:55;;;;;;;;;;;9.70;99.90;;;;;;5080467;28;19927;-72
2021/09/18 02:23:22;;;;;;;;;;;9.70;99.90;;;;;;5096833;28;20397;-72
2021/09/18 02:25:53;;;;;;;;;;;9.70;99.90;;;;;;5114382;28;19931;-72
2021/09/18 02:28:21;;;;;;;;;;;9.70;99.90;;;;;;5096514;28;19927;-72
2021/09/18 02:30:47;;;;;;;;;;;9.70;99.90;;;;;;5079825;28;19927;-72
2021/09/18 02:33:14;;;;;;;;;;;9.60;99.90;;;;;;5114478;28;19949;-72
2021/09/18 02:35:41;;;;;;;;;;;9.60;99.90;;;;;;5096293;28;19923;-72
2021/09/18 02:38:13;;;;;;;;;;;9.60;99.90;;;;;;5080108;28;20327;-72
2021/09/18 02:40:51;;;;;;;;;;;9.50;99.90;;;;;;5097217;28;19924;-72
2021/09/18 02:43:18;;;;;;;;;;;9.50;99.90;;;;;;5096373;28;20352;-72
2021/09/18 02:45:45;;;;;;;;;;;9.40;99.90;;;;;;5075362;28;20305;-72
2021/09/18 02:48:12;;;;;;;;;;;9.40;99.90;;;;;;5094285;28;19928;-72
2021/09/18 02:50:44;;;;;;;;;;;9.30;99.90;;;;;;5092865;28;19931;-71
2021/09/18 02:53:15;;;;;;;;;;;9.30;99.90;;;;;;5076717;28;19928;-72
2021/09/18 02:55:42;;;;;;;;;;;9.30;99.90;;;;;;5092390;28;19989;-72
2021/09/18 02:58:14;;;;;;;;;;;9.40;99.90;;;;;;5079824;28;19959;-72
2021/09/18 03:00:42;;;;;;;;;;;9.40;99.90;;;;;;5096373;28;20344;-72
2021/09/18 03:03:09;;;;;;;;;;;9.40;99.90;;;;;;5095007;28;19927;-72
2021/09/18 03:05:40;;;;;;;;;;;9.30;99.90;;;;;;5079510;28;20386;-72
2021/09/18 03:08:12;;;;;;;;;;;9.20;99.90;;;;;;5095839;28;20569;-72
2021/09/18 03:10:44;;;;;;;;;;;9.00;99.90;;;;;;5096681;28;19965;-72
2021/09/18 03:13:15;;;;;;;;;;;9.00;99.90;;;;;;5114110;28;19928;-73
2021/09/18 03:15:47;;;;;;;;;;;8.90;99.90;;;;;;5095154;28;20352;-72
2021/09/18 03:18:19;;;;;;;;;;;8.90;99.90;;;;;;5096666;28;19924;-73
2021/09/18 03:20:45;;;;;;;;;;;8.90;99.90;;;;;;5095249;28;19927;-72
2021/09/18 03:23:17;;;;;;;;;;;8.90;99.90;;;;;;5095607;28;19955;-73
2021/09/18 03:25:49;;;;;;;;;;;8.90;99.90;;;;;;5078676;28;19924;-72
2021/09/18 03:28:20;;;;;;;;;;;8.90;99.90;;;;;;5079443;28;20282;-72
2021/09/18 03:30:47;;;;;;;;;;;8.90;99.90;;;;;;5078400;28;20370;-73
2021/09/18 03:33:14;;;;;;;;;;;9.00;99.90;;;;;;5074859;28;19928;-72
2021/09/18 03:35:46;;;;;;;;;;;8.90;99.90;;;;;;5090810;28;19928;-73
2021/09/18 03:38:18;;;;;;;;;;;8.90;99.90;;;;;;5089590;28;19927;-72
2021/09/18 03:40:50;;;;;;;;;;;9.00;99.90;;;;;;5078622;28;19959;-72
2021/09/18 03:43:17;;;;;;;;;;;9.00;99.90;;;;;;5078546;28;19965;-72
2021/09/18 03:45:51;;;;;;;;;;;9.00;99.90;;;;;;5074039;28;20405;-72
2021/09/18 03:48:18;;;;;;;;;;;9.00;99.90;;;;;;5091710;28;19924;-72
2021/09/18 03:50:45;;;;;;;;;;;9.00;99.90;;;;;;5091568;28;19946;-72
2021/09/18 03:53:16;;;;;;;;;;;9.00;99.90;;;;;;5078791;28;19923;-72
2021/09/18 03:55:48;;;;;;;;;;;9.00;99.90;;;;;;5078196;28;19977;-72
2021/09/18 03:58:20;;;;;;;;;;;9.00;99.90;;;;;;5078975;28;19927;-72
2021/09/18 04:00:52;;;;;;;;;;;9.00;99.90;;;;;;5095547;28;19924;-71
2021/09/18 04:03:24;;;;;;;;;;;9.10;99.90;;;;;;5113022;28;19923;-71
2021/09/18 04:05:55;;;;;;;;;;;9.00;99.90;;;;;;5094250;28;19932;-72
2021/09/18 04:08:27;;;;;;;;;;;9.00;99.90;;;;;;5094545;28;19977;-73
2021/09/18 04:10:59;;;;;;;;;;;9.00;99.90;;;;;;5094280;28;19923;-72
2021/09/18 04:13:30;;;;;;;;;;;9.00;99.90;;;;;;5112480;28;19924;-72
2021/09/18 04:15:57;;;;;;;;;;;9.00;99.90;;;;;;5094251;28;20409;-72
2021/09/18 04:18:29;;;;;;;;;;;8.90;99.90;;;;;;5078482;28;20354;-72
2021/09/18 04:20:56;;;;;;;;;;;9.00;99.90;;;;;;5077604;28;19974;-73
2021/09/18 04:23:27;;;;;;;;;;;8.90;99.90;;;;;;5094213;28;19969;-72
2021/09/18 04:25:59;;;;;;;;;;;8.90;99.90;;;;;;5094855;28;19962;-72
2021/09/18 04:28:26;;;;;;;;;;;8.80;99.90;;;;;;5094226;28;19928;-73
2021/09/18 04:30:53;;;;;;;;;;;8.80;99.90;;;;;;5077541;28;19924;-72
2021/09/18 04:33:19;;;;;;;;;;;8.70;99.90;;;;;;5077536;28;19976;-74
2021/09/18 04:35:51;;;;;;;;;;;8.70;99.90;;;;;;5111649;28;20338;-72
2021/09/18 04:38:23;;;;;;;;;;;8.70;99.90;;;;;;5093922;28;19973;-72
2021/09/18 04:40:49;;;;;;;;;;;8.70;99.90;;;;;;5094217;28;19924;-72
2021/09/18 04:43:21;;;;;;;;;;;8.70;99.90;;;;;;5094013;28;19977;-72
2021/09/18 04:45:48;;;;;;;;;;;8.70;99.90;;;;;;5093709;28;19931;-71
2021/09/18 04:48:14;;;;;;;;;;;8.80;99.90;;;;;;5094084;28;20385;-73
2021/09/18 04:50:46;;;;;;;;;;;8.70;99.90;;;;;;5077985;28;20026;-72
2021/09/18 04:53:13;;;;;;;;;;;8.70;99.90;;;;;;5111995;28;19924;-72
2021/09/18 04:55:45;;;;;;;;;;;8.70;99.90;;;;;;5093563;28;19977;-73
2021/09/18 04:58:12;;;;;;;;;;;8.60;99.90;;;;;;5112313;28;20352;-72
2021/09/18 05:00:38;;;;;;;;;;;8.60;99.90;;;;;;5111782;28;20306;-71
2021/09/18 05:03:10;;;;;;;;;;;8.60;99.90;;;;;;5095011;28;19970;-72
2021/09/18 05:05:37;;;;;;;;;;;8.60;99.90;;;;;;5076476;28;19967;-71
2021/09/18 05:08:08;;;;;;;;;;;8.60;99.90;;;;;;5112179;28;19993;-71
2021/09/18 05:10:40;;;;;;;;;;;8.60;99.90;;;;;;5077591;28;20390;-71
2021/09/18 05:13:12;;;;;;;;;;;8.70;99.90;;;;;;5112153;28;19937;-73
2021/09/18 05:15:44;;;;;;;;;;;8.70;99.90;;;;;;5111620;28;19955;-71
2021/09/18 05:18:15;;;;;;;;;;;8.60;99.90;;;;;;5093255;28;19927;-71
2021/09/18 05:20:42;;;;;;;;;;;8.70;99.90;;;;;;5093909;28;19951;-71
2021/09/18 05:23:14;;;;;;;;;;;8.70;99.90;;;;;;5093816;28;19923;-71
2021/09/18 05:25:45;;;;;;;;;;;8.70;99.90;;;;;;5112405;28;19927;-71
2021/09/18 05:28:17;;;;;;;;;;;8.70;99.90;;;;;;5098520;28;19935;-72
2021/09/18 05:30:44;;;;;;;;;;;8.70;99.90;;;;;;5097757;28;19981;-71
2021/09/18 05:33:10;;;;;;;;;;;8.70;99.90;;;;;;5097719;28;19971;-71
2021/09/18 05:35:42;;;;;;;;;;;8.70;99.90;;;;;;5115547;28;20034;-71
2021/09/18 05:38:14;;;;;;;;;;;8.70;99.90;;;;;;5098337;28;19924;-72
2021/09/18 05:40:42;;;;;;;;;;;8.70;99.90;;;;;;5097532;28;19951;-71
2021/09/18 05:43:14;;;;;;;;;;;8.70;99.90;;;;;;5097717;28;19931;-71
2021/09/18 05:45:46;;;;;;;;;;;8.80;99.90;;;;;;5097148;28;19924;-71
2021/09/18 05:48:17;;;;;;;;;;;8.80;99.90;;;;;;5097672;28;19934;-71
2021/09/18 05:50:49;;;;;;;;;;;8.80;99.90;;;;;;5097101;28;20378;-71
2021/09/18 05:53:21;;;;;;;;;;;8.80;99.90;;;;;;5115426;28;20019;-71
2021/09/18 05:55:53;;;;;;;;;;;8.80;99.90;;;;;;5096777;28;20010;-71
2021/09/18 05:58:24;;;;;;;;;;;8.80;99.90;;;;;;5097298;28;19930;-71
2021/09/18 06:00:51;;;;;;;;;;;8.80;99.90;;;;;;5080401;28;20374;-71
2021/09/18 06:03:18;;;;;;;;;;;8.80;99.90;;;;;;5097048;28;19963;-71
2021/09/18 06:05:44;;;;;;;;;;;8.90;99.90;;;;;;5079815;28;19924;-72
2021/09/18 06:08:16;;;;;;;;;;;8.90;99.90;;;;;;5080812;28;19958;-71
2021/09/18 06:10:43;;;;;;;;;;;8.90;99.90;;;;;;5096795;28;19923;-72
2021/09/18 06:13:10;;;;;;;;;;;8.90;99.90;;;;;;5078160;28;20360;-71
2021/09/18 06:15:41;;;;;;;;;;;9.00;99.90;;;;;;5096066;28;19963;-72
2021/09/18 06:18:13;;;;;;;;;;;9.00;99.90;;;;;;5080668;28;19958;-72
2021/09/18 06:20:45;;;;;;;;;;;9.10;99.90;;;;;;5080720;28;19965;-72
2021/09/18 06:23:11;;;;;;;;;;;9.20;99.90;;;;;;5096919;28;19966;-72
2021/09/18 06:25:43;;;;;;;;;;;9.20;99.90;;;;;;5114193;28;19927;-72
2021/09/18 06:28:15;;;;;;;;;;;9.30;99.90;;;;;;5096542;28;20011;-72
2021/09/18 06:30:42;;;;;;;;;;;9.30;99.90;;;;;;5096599;28;19924;-74
2021/09/18 06:33:08;;;;;;;;;;;9.40;99.90;;;;;;5079585;28;19923;-73
2021/09/18 06:35:35;;;;;;;;;;;9.40;99.90;;;;;;5096136;28;19973;-71
2021/09/18 06:38:07;;;;;;;;;;;9.70;99.90;;;;;;5079326;28;20022;-73
2021/09/18 06:40:34;;;;;;;;;;;9.80;99.90;;;;;;5096676;28;19924;-72
2021/09/18 06:43:05;;;;;;;;;;;9.90;99.90;;;;;;5097136;28;19959;-72
2021/09/18 06:45:32;;;;;;;;;;;9.90;99.90;;;;;;5079103;28;20298;-72
2021/09/18 06:48:04;;;;;;;;;;;9.90;99.90;;;;;;5097247;28;19967;-71
2021/09/18 06:50:37;;;;;;;;;;;9.90;99.90;;;;;;5114297;28;19924;-72
2021/09/18 06:53:04;;;;;;;;;;;9.90;99.90;;;;;;5079481;28;20384;-71
2021/09/18 06:55:36;;;;;;;;;;;9.90;99.90;;;;;;5102322;28;20466;-73
2021/09/18 06:58:08;;;;;;;;;;;9.90;99.90;;;;;;5096866;28;19924;-72
2021/09/18 07:00:40;;;;;;;;;;;9.90;99.90;;;;;;5095939;28;19923;-71
2021/09/18 07:03:12;;;;;;;;;;;9.90;99.90;;;;;;5080069;28;20001;-72
2021/09/18 07:05:43;;;;;;;;;;;9.90;99.90;;;;;;5113890;28;20027;-72
2021/09/18 07:08:15;;;;;;;;;;;9.90;99.90;;;;;;5096572;28;19931;-73
2021/09/18 07:10:47;;;;;;;;;;;10.00;99.90;;;;;;5079895;28;20325;-72
2021/09/18 07:13:19;;;;;;;;;;;10.10;99.90;;;;;;5078956;28;20482;-71
2021/09/18 07:15:52;;;;;;;;;;;10.20;99.90;;;;;;5095265;28;19928;-71
2021/09/18 07:18:24;;;;;;;;;;;10.20;99.90;;;;;;5113594;28;20344;-72
2021/09/18 07:20:56;;;;;;;;;;;10.30;99.90;;;;;;5096304;28;20014;-73
2021/09/18 07:23:28;;;;;;;;;;;10.40;99.90;;;;;;5113482;28;19927;-71
2021/09/18 07:25:54;;;;;;;;;;;10.50;99.90;;;;;;5094734;28;20009;-72
2021/09/18 07:28:26;;;;;;;;;;;10.60;99.90;;;;;;5096169;28;20022;-72
2021/09/18 07:30:58;;;;;;;;;;;10.70;99.90;;;;;;5079291;28;19928;-72
2021/09/18 07:33:25;;;;;;;;;;;10.90;99.90;;;;;;5095261;28;19931;-72
2021/09/18 07:35:52;;;;;;;;;;;11.00;99.90;;;;;;5095145;28;19978;-72
2021/09/18 07:38:23;;;;;;;;;;;11.10;99.90;;;;;;5095468;28;19966;-73
2021/09/18 07:40:54;;;;;;;;;;;11.20;99.90;;;;;;5095297;28;20385;-72
2021/09/18 07:43:26;;;;;;;;;;;11.30;99.90;;;;;;5079108;28;20022;-72
2021/09/18 07:45:58;;;;;;;;;;;11.50;99.90;;;;;;5113171;28;19928;-72
2021/09/18 07:48:25;;;;;;;;;;;11.60;99.90;;;;;;5094807;28;19924;-72
2021/09/18 07:50:57;;;;;;;;;;;11.70;99.90;;;;;;5096061;28;19955;-73
2021/09/18 07:53:24;;;;;;;;;;;11.80;99.90;;;;;;5077984;28;19931;-72
2021/09/18 07:55:55;;;;;;;;;;;11.90;99.90;;;;;;5095306;28;19966;-72
2021/09/18 07:58:27;;;;;;;;;;;12.00;99.90;;;;;;5094964;28;19963;-72
2021/09/18 08:00:59;;;;;;;;;;;12.30;99.90;;;;;;5078848;28;19966;-73
2021/09/18 08:03:30;;;;;;;;;;;12.60;99.90;;;;;;5094844;28;19966;-72
2021/09/18 08:06:02;;;;;;;;;;;12.80;99.90;;;;;;5077224;28;19931;-73
2021/09/18 08:08:34;;;;;;;;;;;12.90;99.90;;;;;;5095055;28;19955;-72
2021/09/18 08:11:05;;;;;;;;;;;12.90;99.90;;;;;;5095584;28;19924;-73
2021/09/18 08:13:37;;;;;;;;;;;13.00;99.90;;;;;;5091408;28;20731;-74
2021/09/18 08:16:09;;;;;;;;;;;13.10;99.90;;;;;;5110999;28;19923;-73
2021/09/18 08:18:40;;;;;;;;;;;13.20;99.90;;;;;;5112529;28;19923;-73
2021/09/18 08:21:07;;;;;;;;;;;13.30;99.90;;;;;;5076380;28;19930;-72
2021/09/18 08:23:40;;;;;;;;;;;13.40;99.90;;;;;;5093587;28;19978;-72
2021/09/18 08:26:10;;;;;;;;;;;13.50;99.90;;;;;;5111633;28;19923;-73
2021/09/18 08:28:39;;;;;;;;;;;13.60;99.90;;;;;;5093440;28;20396;-72
2021/09/18 08:31:06;;;;;;;;;;;13.70;99.90;;;;;;5076676;27;19954;-73
2021/09/18 08:33:40;;;;;;;;;;;13.80;99.90;;;;;;5109017;28;19981;-72
2021/09/18 08:36:06;;;;;;;;;;;13.90;99.90;;;;;;5111501;28;19928;-74
2021/09/18 08:38:38;;;;;;;;;;;14.00;99.90;;;;;;5077883;28;19927;-73
2021/09/18 08:41:06;;;;;;;;;;;14.20;99.90;;;;;;5093693;28;19924;-73
2021/09/18 08:43:33;;;;;;;;;;;14.20;99.90;;;;;;5093511;28;19962;-73
2021/09/18 08:46:00;;;;;;;;;;;14.30;99.90;;;;;;5093287;28;19930;-73
2021/09/18 08:48:26;;;;;;;;;;;14.40;99.90;;;;;;5077006;28;19969;-73
2021/09/18 08:50:58;;;;;;;;;;;14.50;99.90;;;;;;5094489;28;19974;-72
2021/09/18 08:53:30;;;;;;;;;;;14.60;99.90;;;;;;5111948;28;19985;-72
2021/09/18 08:56:02;;;;;;;;;;;14.80;99.90;;;;;;5111050;28;19923;-73
2021/09/18 08:58:34;;;;;;;;;;;14.90;99.90;;;;;;5093873;28;20408;-73
2021/09/18 09:01:01;;;;;;;;;;;15.00;99.90;;;;;;5093031;28;19928;-73
2021/09/18 09:03:35;;;;;;;;;;;15.10;99.90;;;;;;5093559;28;19923;-73
2021/09/18 09:06:14;;;;;;;;;;;15.20;99.90;;;;;;5093564;28;19959;-73
2021/09/18 09:08:53;;;;;;;;;;;15.30;99.90;;;;;;5093328;28;19928;-73
2021/09/18 09:11:29;;;;;;;;;;;15.40;99.90;;;;;;5094715;28;19924;-73
2021/09/18 09:13:57;;;;;;;;;;;15.50;99.90;;;;;;5076778;28;20484;-73
2021/09/18 09:16:32;;;;;;;;;;;15.60;99.90;;;;;;5078055;28;19924;-73
2021/09/18 09:18:59;;;;;;;;;;;15.70;99.90;;;;;;5076432;28;19935;-73
2021/09/18 09:21:31;;;;;;;;;;;15.80;99.90;;;;;;5094493;28;19954;-72
2021/09/18 09:24:11;;;;;;;;;;;15.90;99.90;;;;;;5111558;28;19924;-73
2021/09/18 09:26:39;;;;;;;;;;;16.00;99.90;;;;;;5092600;28;20313;-74
2021/09/18 09:29:11;;;;;;;;;;;16.10;99.90;;;;;;5093550;28;19924;-73
2021/09/18 09:31:43;;;;;;;;;;;16.30;99.90;;;;;;5094516;28;19928;-73
2021/09/18 09:34:14;;;;;;;;;;;16.40;99.90;;;;;;5093437;28;19930;-74
2021/09/18 09:36:41;;;;;;;;;;;16.50;99.90;;;;;;5093491;28;19970;-73
2021/09/18 09:39:08;;;;;;;;;;;16.70;99.90;;;;;;5093991;28;20357;-73
2021/09/18 09:41:48;;;;;;;;;;;16.80;99.90;;;;;;5093751;28;20022;-72
2021/09/18 09:44:20;;;;;;;;;;;17.00;99.90;;;;;;5077333;28;20011;-73
2021/09/18 09:47:04;;;;;;;;;;;17.10;99.90;;;;;;5111721;28;19924;-73
2021/09/18 09:49:47;;;;;;;;;;;17.20;99.90;;;;;;5077415;28;19931;-73
2021/09/18 09:52:20;;;;;;;;;;;17.10;99.90;;;;;;5093815;28;20388;-73
2021/09/18 09:54:54;;;;;;;;;;;17.00;99.90;;;;;;5077099;28;19924;-72
2021/09/18 09:57:21;;;;;;;;;;;17.10;99.90;;;;;;5094006;28;20030;-72
2021/09/18 09:59:59;;;;;;;;;;;17.20;99.90;;;;;;5109583;28;19923;-73
2021/09/18 10:02:27;;;;;;;;;;;17.30;99.90;;;;;;5110537;28;20467;-73
2021/09/18 10:04:58;;;;;;;;;;;17.40;99.90;;;;;;5093789;28;19934;-73
2021/09/18 10:07:30;;;;;;;;;;;17.50;99.90;;;;;;5077328;28;20022;-73
2021/09/18 10:09:58;;;;;;;;;;;17.60;99.90;;;;;;5111155;28;19970;-73
2021/09/18 10:12:26;;;;;;;;;;;17.80;99.90;;;;;;5094660;28;19929;-73
2021/09/18 10:14:54;;;;;;;;;;;17.90;99.90;;;;;;5086912;28;19955;-73
2021/09/18 10:17:26;;;;;;;;;;;18.00;99.90;;;;;;5068968;28;19951;-73
2021/09/18 10:20:02;;;;;;;;;;;18.00;99.90;;;;;;5095774;28;19932;-71
2021/09/18 10:25:32;;;;;;;;;;;18.20;99.90;;;;;;5111755;28;19963;-73
2021/09/18 10:28:09;;;;;;;;;;;18.20;99.90;;;;;;5093767;28;20018;-72
2021/09/18 10:30:51;;;;;;;;;;;18.30;99.90;;;;;;5076957;28;20006;-73
2021/09/18 10:33:26;;;;;;;;;;;18.40;99.90;;;;;;5089008;28;19925;-73
2021/09/18 10:35:54;;;;;;;;;;;18.40;99.90;;;;;;5095174;28;19932;-73
2021/09/18 10:38:24;;;;;;;;;;;18.40;99.90;;;;;;5095254;28;20010;-73
2021/09/18 10:40:57;;;;;;;;;;;18.50;99.90;;;;;;5078091;28;20372;-73
2021/09/18 10:43:44;;;;;;;;;;;18.60;99.90;;;;;;5095321;28;20350;-73
2021/09/18 10:46:35;;;;;;;;;;;18.70;99.90;;;;;;5078435;28;19923;-73
2021/09/18 10:49:43;;;;;;;;;;;18.80;99.90;;;;;;5112168;28;20024;-73
2021/09/18 10:52:22;;;;;;;;;;;18.90;99.90;;;;;;5105409;28;20016;-73
2021/09/18 10:55:02;;;;;;;;;;;19.00;99.90;;;;;;5096196;28;19924;-73
2021/09/18 10:57:38;;;;;;;;;;;19.10;99.90;;;;;;5117815;28;19991;-73
2021/09/18 11:00:20;;;;;;;;;;;19.10;99.90;;;;;;5118407;28;20007;-73
2021/09/18 11:02:51;;;;;;;;;;;19.20;99.90;;;;;;5096115;28;19989;-73
2021/09/18 11:05:23;;;;;;;;;;;19.30;99.90;;;;;;5114108;28;20018;-73
2021/09/18 11:07:50;;;;;;;;;;;19.40;99.90;;;;;;5114080;28;20401;-73
2021/09/18 11:10:22;;;;;;;;;;;19.40;99.90;;;;;;5095481;28;20034;-72
2021/09/18 11:13:06;;;;;;;;;;;19.50;99.90;;;;;;5080002;28;20457;-73
2021/09/18 11:15:37;;;;;;;;;;;19.50;99.90;;;;;;5113445;28;20390;-73
2021/09/18 11:18:27;;;;;;;;;;;19.60;99.90;;;;;;5095938;28;20386;-72
2021/09/18 11:21:12;;;;;;;;;;;19.60;99.90;;;;;;5095098;28;19959;-73
2021/09/18 11:23:48;;;;;;;;;;;19.60;99.90;;;;;;5094517;28;20454;-72
2021/09/18 11:26:35;;;;;;;;;;;19.70;99.90;;;;;;5078036;28;19924;-71
2021/09/18 11:29:30;;;;;;;;;;;19.80;99.90;;;;;;5091937;28;20202;-73
2021/09/18 11:32:15;;;;;;;;;;;19.90;99.90;;;;;;5093348;28;20386;-73
2021/09/18 11:34:47;;;;;;;;;;;20.00;99.90;;;;;;5109886;28;19930;-73
2021/09/18 11:37:26;;;;;;;;;;;20.00;99.90;;;;;;5092534;28;20015;-71
2021/09/18 11:40:02;;;;;;;;;;;20.00;99.90;;;;;;5089572;28;19927;-72
2021/09/18 11:42:34;;;;;;;;;;;20.10;99.90;;;;;;5091537;28;19950;-73
2021/09/18 11:45:11;;;;;;;;;;;20.10;99.90;;;;;;5093838;28;20350;-72
2021/09/18 11:47:40;;;;;;;;;;;20.20;99.90;;;;;;5104217;28;20249;-73
2021/09/18 11:50:21;;;;;;;;;;;20.10;99.90;;;;;;5085582;28;19924;-73
2021/09/18 11:52:48;;;;;;;;;;;20.10;99.90;;;;;;5091489;28;20014;-73
2021/09/18 11:55:45;;;;;;;;;;;20.10;99.90;;;;;;5111475;28;20001;-72
2021/09/18 11:58:21;;;;;;;;;;;20.10;99.90;;;;;;5097462;28;19924;-71
2021/09/18 12:00:51;;;;;;;;;;;20.20;99.90;;;;;;5094953;28;19924;-73
2021/09/18 12:03:24;;;;;;;;;;;20.30;99.90;;;;;;5078079;28;20368;-73
2021/09/18 12:05:56;;;;;;;;;;;20.30;99.90;;;;;;5094170;28;19924;-73
2021/09/18 12:08:29;;;;;;;;;;;20.50;99.90;;;;;;5091793;28;19930;-72
2021/09/18 12:11:17;;;;;;;;;;;20.40;99.90;;;;;;5076509;28;20449;-72
2021/09/18 12:13:45;;;;;;;;;;;20.30;99.90;;;;;;5107062;28;20027;-73
2021/09/18 12:16:18;;;;;;;;;;;20.10;99.90;;;;;;5064639;28;19923;-72
2021/09/18 12:18:46;;;;;;;;;;;19.90;99.90;;;;;;5082478;28;20006;-72
2021/09/18 12:21:19;;;;;;;;;;;19.80;99.90;;;;;;5088778;28;19923;-72
2021/09/18 12:23:55;;;;;;;;;;;19.90;99.90;;;;;;5093487;28;19991;-72
2021/09/18 12:26:34;;;;;;;;;;;20.10;99.90;;;;;;5076975;28;19924;-72
2021/09/18 12:29:06;;;;;;;;;;;20.30;99.90;;;;;;5078320;28;19924;-72
2021/09/18 12:31:40;;;;;;;;;;;20.50;99.90;;;;;;5111941;28;19966;-73
2021/09/18 12:34:23;;;;;;;;;;;20.70;99.90;;;;;;5094410;28;19924;-73
2021/09/18 12:36:50;;;;;;;;;;;20.90;99.90;;;;;;5091583;28;20019;-72
2021/09/18 12:39:26;;;;;;;;;;;20.90;99.90;;;;;;5094019;28;19923;-72
2021/09/18 12:42:04;;;;;;;;;;;21.00;99.90;;;;;;5078105;28;19924;-72
2021/09/18 12:44:37;;;;;;;;;;;21.20;99.90;;;;;;5077505;28;19924;-72
2021/09/18 12:47:19;;;;;;;;;;;21.40;99.90;;;;;;5094028;28;20022;-73
2021/09/18 12:49:51;;;;;;;;;;;21.50;99.90;;;;;;5112052;28;19930;-72
2021/09/18 12:52:28;;;;;;;;;;;21.70;99.90;;;;;;5093772;28;19927;-71
2021/09/18 12:55:00;;;;;;;;;;;21.80;99.90;;;;;;5093499;28;19958;-73
2021/09/18 12:57:33;;;;;;;;;;;21.80;99.90;;;;;;5077558;28;19938;-73
2021/09/18 13:00:06;;;;;;;;;;;21.80;99.90;;;;;;5077724;28;19928;-71
2021/09/18 13:02:32;;;;;;;;;;;21.90;99.60;;;;;;5093493;28;20019;-72
2021/09/18 13:05:03;;;;;;;;;;;21.80;99.10;;;;;;5093201;28;19924;-72
2021/09/18 13:07:29;;;;;;;;;;;21.80;99.70;;;;;;5093610;28;19959;-72
2021/09/18 13:09:57;;;;;;;;;;;21.70;97.80;;;;;;5093494;28;20010;-73
2021/09/18 13:12:24;;;;;;;;;;;21.70;99.10;;;;;;5093443;28;20011;-72
2021/09/18 13:14:57;;;;;;;;;;;21.70;99.50;;;;;;5094180;28;20340;-72
2021/09/18 13:17:24;;;;;;;;;;;21.70;98.50;;;;;;5093250;28;19952;-72
2021/09/18 13:19:57;;;;;;;;;;;21.70;98.40;;;;;;5112052;28;19959;-72
2021/09/18 13:22:30;;;;;;;;;;;21.70;99.10;;;;;;5112329;28;20026;-72
2021/09/18 13:24:58;;;;;;;;;;;21.70;98.50;;;;;;5093677;28;19959;-72
2021/09/18 13:27:25;;;;;;;;;;;21.70;98.90;;;;;;5093868;28;19923;-72
2021/09/18 13:29:53;;;;;;;;;;;21.70;97.70;;;;;;5094143;28;20027;-72
2021/09/18 13:32:26;;;;;;;;;;;21.70;96.90;;;;;;5112374;28;20285;-71
2021/09/18 13:34:53;;;;;;;;;;;21.80;98.20;;;;;;5093376;28;19930;-72
2021/09/18 13:37:24;;;;;;;;;;;21.80;98.40;;;;;;5094025;28;20283;-72
2021/09/18 13:39:51;;;;;;;;;;;21.80;96.00;;;;;;5094114;28;19965;-72
2021/09/18 13:42:25;;;;;;;;;;;21.90;95.90;;;;;;5112164;28;19930;-72
2021/09/18 13:44:57;;;;;;;;;;;21.90;97.10;;;;;;5093896;28;20015;-72
2021/09/18 13:47:23;;;;;;;;;;;21.90;96.90;;;;;;5095889;28;20307;-71
2021/09/18 13:49:50;;;;;;;;;;;21.90;96.40;;;;;;5097895;28;20359;-71
2021/09/18 13:52:17;;;;;;;;;;;22.10;96.30;;;;;;5115881;28;19931;-72
2021/09/18 13:54:48;;;;;;;;;;;22.20;96.40;;;;;;5115736;28;20412;-72
2021/09/18 13:57:20;;;;;;;;;;;22.20;96.20;;;;;;5097643;28;19945;-71
2021/09/18 13:59:47;;;;;;;;;;;22.30;95.60;;;;;;5080884;28;19924;-72
2021/09/18 14:02:14;;;;;;;;;;;22.40;95.50;;;;;;5115531;28;20420;-72
2021/09/18 14:04:45;;;;;;;;;;;22.40;94.90;;;;;;5097784;28;20329;-72
2021/09/18 14:07:12;;;;;;;;;;;22.50;94.90;;;;;;5097387;28;19923;-72
2021/09/18 14:09:38;;;;;;;;;;;22.40;95.50;;;;;;5080303;28;20014;-72
2021/09/18 14:12:05;;;;;;;;;;;22.40;94.70;;;;;;5080522;28;20026;-72
2021/09/18 14:14:37;;;;;;;;;;;22.40;95.70;;;;;;5115645;28;19950;-72
2021/09/18 14:17:09;;;;;;;;;;;22.50;94.10;;;;;;5098729;28;19923;-72
2021/09/18 14:19:40;;;;;;;;;;;22.50;95.60;;;;;;5115909;28;19923;-72
2021/09/18 14:22:12;;;;;;;;;;;22.70;95.80;;;;;;5097896;28;19924;-71
2021/09/18 14:24:39;;;;;;;;;;;22.80;96.40;;;;;;5096656;28;20007;-72
2021/09/18 14:27:05;;;;;;;;;;;23.00;97.40;;;;;;5115121;28;20026;-72
2021/09/18 14:29:32;;;;;;;;;;;23.20;97.50;;;;;;5114834;28;20383;-71
2021/09/18 14:32:00;;;;;;;;;;;23.30;96.90;;;;;;5096840;28;20370;-72
2021/09/18 14:34:32;;;;;;;;;;;23.50;95.40;;;;;;5096037;28;20404;-72
2021/09/18 14:37:05;;;;;;;;;;;23.50;94.90;;;;;;5114887;28;19951;-72
2021/09/18 14:39:36;;;;;;;;;;;23.60;93.30;;;;;;5114682;28;20061;-72
2021/09/18 14:42:08;;;;;;;;;;;23.80;93.00;;;;;;5097515;28;19924;-72
2021/09/18 14:44:35;;;;;;;;;;;24.20;94.50;;;;;;5096104;28;20014;-72
2021/09/18 14:47:01;;;;;;;;;;;24.30;92.80;;;;;;5096408;28;19989;-72